createdAt,value
2022-08-07T00:00:29.384Z,10.57
2022-08-07T00:03:01.529Z,8.90
2022-08-07T00:05:36.313Z,9.93
2022-08-07T00:08:09.031Z,8.80
2022-08-07T00:10:48.007Z,7.70
2022-08-07T00:13:23.788Z,8.90
2022-08-07T00:15:58.062Z,9.37
2022-08-07T00:18:30.137Z,8.50
2022-08-07T00:21:08.164Z,9.20
2022-08-07T00:23:57.353Z,8.07
2022-08-07T00:26:48.701Z,8.10
2022-08-07T00:29:25.981Z,8.90
2022-08-07T00:32:03.796Z,9.03
2022-08-07T00:34:38.012Z,9.90
2022-08-07T00:37:10.636Z,7.60
2022-08-07T00:39:44.886Z,8.07
2022-08-07T00:42:17.763Z,7.80
2022-08-07T00:44:49.817Z,7.20
2022-08-07T00:48:08.121Z,8.03
2022-08-07T00:50:20.545Z,7.43
2022-08-07T00:53:09.244Z,8.20
2022-08-07T00:56:02.599Z,7.97
2022-08-07T00:58:34.910Z,7.70
2022-08-07T01:01:07.553Z,7.57
2022-08-07T01:03:55.359Z,7.20
2022-08-07T01:06:30.303Z,7.87
2022-08-07T01:09:03.073Z,8.70
2022-08-07T01:12:23.262Z,8.17
2022-08-07T01:14:28.609Z,7.77
2022-08-07T01:17:04.059Z,9.13
2022-08-07T01:19:39.939Z,8.53
2022-08-07T01:22:22.891Z,9.90
2022-08-07T01:25:20.729Z,8.07
2022-08-07T01:27:55.779Z,8.20
2022-08-07T01:30:28.883Z,8.27
2022-08-07T01:33:02.277Z,7.90
2022-08-07T01:35:52.788Z,7.20
2022-08-07T01:38:29.958Z,7.70
2022-08-07T01:41:11.983Z,8.10
2022-08-07T01:44:01.714Z,9.37
2022-08-07T01:46:36.437Z,8.17
2022-08-07T01:49:13.347Z,7.73
2022-08-07T01:52:03.755Z,9.80
2022-08-07T01:54:40.200Z,8.40
2022-08-07T01:57:24.212Z,8.83
2022-08-07T02:00:02.218Z,10.50
2022-08-07T02:03:21.926Z,9.70
2022-08-07T02:06:30.847Z,10.33
2022-08-07T02:09:03.585Z,9.03
2022-08-07T02:12:02.575Z,9.77
2022-08-07T02:14:36.666Z,8.97
2022-08-07T02:17:27.412Z,9.50
2022-08-07T02:20:04.375Z,9.90
2022-08-07T02:22:41.386Z,9.00
2022-08-07T02:25:18.515Z,8.37
2022-08-07T02:28:01.061Z,8.90
2022-08-07T02:30:35.772Z,9.10
2022-08-07T02:33:24.020Z,9.00
2022-08-07T02:36:27.190Z,8.73
2022-08-07T02:39:01.790Z,8.97
2022-08-07T02:41:47.248Z,9.77
2022-08-07T02:44:27.477Z,9.70
2022-08-07T02:47:05.766Z,8.47
2022-08-07T02:49:57.777Z,9.40
2022-08-07T02:52:54.740Z,9.43
2022-08-07T02:56:03.891Z,8.87
2022-08-07T02:58:34.525Z,8.37
2022-08-07T03:01:16.043Z,8.83
2022-08-07T03:03:52.100Z,9.40
2022-08-07T03:06:33.271Z,9.33
2022-08-07T03:09:11.279Z,8.33
2022-08-07T03:11:51.914Z,9.43
2022-08-07T03:14:32.451Z,9.00
2022-08-07T03:17:05.801Z,8.63
2022-08-07T03:19:41.992Z,9.57
2022-08-07T03:22:19.014Z,10.00
2022-08-07T03:24:52.327Z,8.83
2022-08-07T03:27:25.347Z,8.90
2022-08-07T03:30:06.220Z,9.33
2022-08-07T03:32:58.192Z,8.50
2022-08-07T03:35:44.036Z,8.20
2022-08-07T03:38:29.686Z,8.93
2022-08-07T03:41:07.583Z,8.67
2022-08-07T03:43:44.041Z,9.50
2022-08-07T03:46:30.172Z,9.80
2022-08-07T03:49:03.505Z,9.03
2022-08-07T03:51:47.321Z,9.70
2022-08-07T03:54:36.393Z,9.50
2022-08-07T03:58:08.829Z,10.07
2022-08-07T04:00:10.528Z,9.57
2022-08-07T04:02:51.363Z,10.20
2022-08-07T04:05:40.391Z,9.50
2022-08-07T04:08:18.479Z,10.60
2022-08-07T04:12:15.339Z,9.30
2022-08-07T04:14:32.987Z,10.43
2022-08-07T04:16:43.099Z,10.37
2022-08-07T04:19:34.035Z,9.93
2022-08-07T04:22:29.191Z,10.37
2022-08-07T04:25:08.905Z,10.30
2022-08-07T04:27:59.206Z,10.17
2022-08-07T04:30:39.580Z,10.70
2022-08-07T04:33:25.006Z,11.87
2022-08-07T04:35:58.763Z,10.87
2022-08-07T04:38:33.727Z,12.00
2022-08-07T04:41:06.681Z,11.23
2022-08-07T04:44:09.609Z,10.63
2022-08-07T04:47:08.477Z,12.00
2022-08-07T04:50:13.748Z,10.97
2022-08-07T04:53:39.916Z,10.67
2022-08-07T04:58:10.971Z,11.67
2022-08-07T05:00:11.603Z,10.60
2022-08-07T05:02:26.212Z,11.17
2022-08-07T05:05:53.911Z,11.77
2022-08-07T05:09:00.072Z,12.47
2022-08-07T05:11:57.537Z,12.80
2022-08-07T05:14:52.109Z,12.50
2022-08-07T05:17:52.291Z,13.83
2022-08-07T05:20:27.033Z,13.93
2022-08-07T05:23:15.565Z,12.93
2022-08-07T05:26:10.726Z,11.83
2022-08-07T05:28:48.484Z,12.63
2022-08-07T05:31:34.656Z,12.00
2022-08-07T05:34:13.779Z,11.53
2022-08-07T05:36:52.679Z,12.17
2022-08-07T05:40:14.007Z,11.70
2022-08-07T05:42:34.639Z,10.93
2022-08-07T05:45:26.141Z,11.40
2022-08-07T05:48:09.161Z,11.20
2022-08-07T05:50:47.585Z,11.03
2022-08-07T05:54:12.099Z,10.93
2022-08-07T05:56:19.634Z,10.60
2022-08-07T05:58:56.067Z,9.40
2022-08-07T06:01:34.767Z,10.70
2022-08-07T06:04:09.279Z,9.73
2022-08-07T06:06:46.354Z,9.30
2022-08-07T06:09:21.180Z,9.90
2022-08-07T06:12:15.672Z,9.70
2022-08-07T06:14:49.649Z,9.43
2022-08-07T06:17:23.214Z,9.77
2022-08-07T06:20:12.833Z,8.57
2022-08-07T06:23:02.188Z,9.90
2022-08-07T06:25:54.572Z,9.30
2022-08-07T06:28:30.802Z,8.70
2022-08-07T06:31:03.909Z,8.83
2022-08-07T06:33:38.385Z,8.70
2022-08-07T06:36:13.888Z,8.80
2022-08-07T06:40:13.206Z,8.60
2022-08-07T06:42:05.505Z,9.37
2022-08-07T06:44:57.406Z,6.63
2022-08-07T06:47:38.754Z,8.00
2022-08-07T06:50:22.809Z,7.20
2022-08-07T06:52:57.371Z,7.77
2022-08-07T06:55:53.787Z,6.40
2022-08-07T06:58:28.787Z,7.30
2022-08-07T07:01:09.520Z,7.50
2022-08-07T07:03:49.996Z,6.63
2022-08-07T07:06:29.425Z,5.70
2022-08-07T07:09:26.347Z,5.00
2022-08-07T07:12:21.642Z,5.87
2022-08-07T07:15:24.142Z,5.30
2022-08-07T07:18:46.918Z,5.93
2022-08-07T07:21:24.317Z,5.70
2022-08-07T07:24:05.930Z,5.87
2022-08-07T07:26:51.850Z,6.53
2022-08-07T07:29:40.049Z,6.60
2022-08-07T07:32:19.094Z,5.80
2022-08-07T07:34:54.634Z,5.07
2022-08-07T07:37:45.251Z,4.90
2022-08-07T07:40:20.666Z,5.23
2022-08-07T07:43:15.267Z,5.10
2022-08-07T07:46:38.065Z,4.77
2022-08-07T07:48:48.577Z,5.40
2022-08-07T07:51:21.761Z,4.90
2022-08-07T07:53:54.833Z,4.97
2022-08-07T07:56:32.024Z,5.30
2022-08-07T07:59:06.083Z,5.70
2022-08-07T08:02:02.576Z,5.77
2022-08-07T08:04:35.530Z,5.67
2022-08-07T08:07:10.699Z,5.50
2022-08-07T08:09:52.058Z,5.60
2022-08-07T08:12:58.818Z,5.50
2022-08-07T08:15:57.721Z,5.80
2022-08-07T08:18:28.083Z,4.90
2022-08-07T08:21:01.653Z,6.10
2022-08-07T08:23:53.747Z,5.53
2022-08-07T08:26:44.392Z,4.53
2022-08-07T08:29:22.960Z,4.97
2022-08-07T08:32:16.821Z,5.50
2022-08-07T08:34:49.160Z,6.10
2022-08-07T08:38:00.679Z,4.90
2022-08-07T08:40:28.283Z,5.70
2022-08-07T08:43:41.878Z,5.40
2022-08-07T08:46:44.985Z,4.87
2022-08-07T08:49:32.777Z,5.90
2022-08-07T08:52:14.067Z,5.10
2022-08-07T08:54:59.187Z,5.37
2022-08-07T08:57:45.201Z,5.00
2022-08-07T09:00:18.256Z,4.97
2022-08-07T09:03:07.478Z,4.70
2022-08-07T09:05:53.600Z,5.10
2022-08-07T09:08:47.529Z,5.10
2022-08-07T09:11:50.341Z,4.90
2022-08-07T09:14:31.680Z,5.53
2022-08-07T09:17:17.678Z,5.00
2022-08-07T09:20:35.191Z,5.10
2022-08-07T09:24:30.560Z,5.00
2022-08-07T09:26:31.674Z,5.60
2022-08-07T09:30:03.833Z,5.00
2022-08-07T09:33:05.391Z,5.43
2022-08-07T09:36:02.815Z,6.00
2022-08-07T09:38:50.233Z,6.10
2022-08-07T09:41:43.545Z,6.10
2022-08-07T09:47:27.389Z,5.20
2022-08-07T09:48:03.965Z,5.37
2022-08-07T09:50:56.436Z,5.70
2022-08-07T09:53:40.793Z,5.97
2022-08-07T09:56:44.700Z,5.07
2022-08-07T10:00:00.533Z,5.57
2022-08-07T10:04:06.406Z,5.80
2022-08-07T10:06:28.917Z,5.40
2022-08-07T10:09:13.396Z,6.00
2022-08-07T10:12:21.773Z,5.53
2022-08-07T10:15:05.328Z,6.20
2022-08-07T10:18:01.851Z,5.53
2022-08-07T10:20:50.186Z,5.30
2022-08-07T10:24:18.427Z,5.07
2022-08-07T10:30:27.884Z,5.90
2022-08-07T10:34:15.375Z,5.20
2022-08-07T10:36:52.256Z,5.80
2022-08-07T10:39:41.567Z,5.03
2022-08-07T10:42:36.613Z,6.90
2022-08-07T10:45:19.393Z,5.00
2022-08-07T10:48:13.547Z,5.80
2022-08-07T10:50:50.122Z,5.47
2022-08-07T10:53:22.772Z,5.07
2022-08-07T10:56:09.678Z,5.63
2022-08-07T10:59:10.087Z,5.87
2022-08-07T11:02:05.241Z,4.90
2022-08-07T11:05:49.257Z,5.47
2022-08-07T11:08:43.881Z,5.10
2022-08-07T11:12:05.583Z,4.60
2022-08-07T11:14:43.607Z,5.23
2022-08-07T11:17:43.416Z,4.93
2022-08-07T11:20:22.513Z,5.00
2022-08-07T11:23:26.381Z,5.13
2022-08-07T11:26:28.730Z,5.70
2022-08-07T11:29:12.907Z,4.40
2022-08-07T11:32:08.644Z,4.30
2022-08-07T11:34:47.950Z,5.13
2022-08-07T11:37:58.338Z,5.10
2022-08-07T11:40:49.854Z,5.00
2022-08-07T11:43:54.491Z,4.90
2022-08-07T11:46:44.769Z,4.80
2022-08-07T11:50:18.590Z,5.20
2022-08-07T11:52:42.836Z,5.77
2022-08-07T11:56:09.293Z,5.20
2022-08-07T11:58:41.620Z,5.10
2022-08-07T12:01:59.727Z,6.97
2022-08-07T12:04:43.052Z,5.17
2022-08-07T12:07:38.736Z,6.03
2022-08-07T12:10:23.182Z,5.00
2022-08-07T12:13:18.639Z,4.63
2022-08-07T12:16:12.165Z,4.87
2022-08-07T12:19:14.611Z,6.20
2022-08-07T12:22:37.258Z,4.40
2022-08-07T12:26:05.311Z,4.30
2022-08-07T12:28:31.007Z,4.50
2022-08-07T12:31:11.856Z,4.30
2022-08-07T12:33:56.549Z,4.40
2022-08-07T12:36:35.163Z,4.60
2022-08-07T12:39:09.383Z,4.53
2022-08-07T12:42:02.375Z,4.03
2022-08-07T12:44:36.046Z,4.63
2022-08-07T12:47:37.266Z,4.50
2022-08-07T12:50:34.215Z,4.27
2022-08-07T12:53:19.297Z,3.90
2022-08-07T12:56:12.504Z,4.83
2022-08-07T12:58:56.946Z,4.17
2022-08-07T13:01:43.270Z,4.70
2022-08-07T13:05:01.363Z,4.70
2022-08-07T13:08:13.986Z,4.60
2022-08-07T13:11:08.740Z,4.50
2022-08-07T13:14:09.047Z,5.33
2022-08-07T13:16:54.821Z,4.20
2022-08-07T13:19:45.944Z,4.37
2022-08-07T13:22:32.221Z,4.20
2022-08-07T13:25:39.523Z,5.33
2022-08-07T13:28:18.725Z,4.70
2022-08-07T13:31:06.514Z,3.90
2022-08-07T13:34:31.956Z,4.83
2022-08-07T13:37:22.342Z,4.30
2022-08-07T13:40:34.885Z,4.80
2022-08-07T13:43:13.390Z,5.00
2022-08-07T13:46:21.852Z,4.53
2022-08-07T13:48:56.100Z,5.10
2022-08-07T13:52:05.098Z,4.10
2022-08-07T13:54:33.433Z,4.37
2022-08-07T13:57:14.515Z,5.50
2022-08-07T14:00:02.096Z,5.20
2022-08-07T14:02:50.820Z,5.50
2022-08-07T14:05:24.966Z,6.57
2022-08-07T14:08:10.471Z,5.70
2022-08-07T14:10:43.722Z,4.13
2022-08-07T14:13:18.847Z,4.37
2022-08-07T14:15:56.955Z,5.40
2022-08-07T14:18:33.183Z,4.30
2022-08-07T14:21:21.170Z,4.57
2022-08-07T14:24:08.859Z,5.27
2022-08-07T14:26:50.607Z,4.80
2022-08-07T14:30:06.700Z,4.20
2022-08-07T14:32:57.425Z,4.80
2022-08-07T14:35:44.658Z,4.70
2022-08-07T14:38:30.855Z,5.10
2022-08-07T14:41:12.231Z,4.93
2022-08-07T14:43:58.617Z,4.27
2022-08-07T14:46:51.555Z,4.47
2022-08-07T14:49:56.975Z,4.10
2022-08-07T14:52:27.593Z,4.47
2022-08-07T14:55:00.678Z,5.30
2022-08-07T14:57:54.621Z,4.37
2022-08-07T15:00:30.883Z,4.60
2022-08-07T15:03:16.659Z,4.20
2022-08-07T15:05:54.911Z,4.27
2022-08-07T15:08:54.587Z,4.93
2022-08-07T15:11:52.843Z,4.97
2022-08-07T15:14:25.468Z,5.10
2022-08-07T15:17:13.958Z,5.00
2022-08-07T15:20:33.926Z,4.57
2022-08-07T15:22:53.978Z,4.30
2022-08-07T15:25:36.463Z,5.00
2022-08-07T15:34:01.810Z,4.50
2022-08-07T15:37:04.686Z,4.87
2022-08-07T15:39:27.485Z,4.60
2022-08-07T15:45:55.396Z,4.27
2022-08-07T15:48:33.652Z,4.87
2022-08-07T15:51:09.940Z,4.90
2022-08-07T15:53:52.655Z,4.27
2022-08-07T15:56:36.782Z,4.77
2022-08-07T15:59:17.427Z,4.77
2022-08-07T16:02:01.899Z,4.73
2022-08-07T16:04:38.149Z,4.50
2022-08-07T16:08:31.976Z,4.77
2022-08-07T16:10:16.753Z,5.77
2022-08-07T16:13:17.581Z,5.23
2022-08-07T16:16:47.869Z,4.87
2022-08-07T16:19:43.176Z,4.60
2022-08-07T16:22:55.803Z,4.97
2022-08-07T16:25:56.148Z,5.20
2022-08-07T16:30:06.825Z,9.50
2022-08-07T16:31:51.527Z,5.23
2022-08-07T16:34:53.139Z,10.47
2022-08-07T16:38:05.694Z,4.70
2022-08-07T16:40:57.081Z,5.30
2022-08-07T16:44:11.253Z,6.00
2022-08-07T16:47:16.741Z,5.00
2022-08-07T16:50:36.881Z,5.77
2022-08-07T16:54:02.872Z,4.70
2022-08-07T16:56:28.974Z,4.83
2022-08-07T16:59:17.357Z,4.37
2022-08-07T17:02:53.004Z,4.20
2022-08-07T17:06:02.264Z,4.33
2022-08-07T17:09:04.399Z,4.73
2022-08-07T17:12:04.499Z,4.73
2022-08-07T17:14:50.764Z,4.87
2022-08-07T17:17:44.092Z,4.00
2022-08-07T17:20:41.842Z,4.30
2022-08-07T17:23:23.185Z,4.53
2022-08-07T17:26:23.162Z,3.80
2022-08-07T17:30:14.323Z,4.20
2022-08-07T17:32:30.301Z,4.70
2022-08-07T17:35:51.817Z,5.33
2022-08-07T17:38:33.801Z,4.20
2022-08-07T17:42:02.740Z,4.80
2022-08-07T17:44:33.746Z,4.60
2022-08-07T17:47:38.011Z,4.43
2022-08-07T17:50:19.392Z,4.00
2022-08-07T17:52:59.785Z,5.63
2022-08-07T17:55:55.944Z,4.57
2022-08-07T17:59:04.243Z,4.67
2022-08-07T18:01:56.801Z,4.17
2022-08-07T18:04:42.130Z,4.40
2022-08-07T18:07:37.309Z,4.47
2022-08-07T18:10:32.601Z,4.97
2022-08-07T18:13:40.430Z,5.00
2022-08-07T18:16:58.614Z,4.50
2022-08-07T18:21:09.539Z,4.73
2022-08-07T18:22:43.701Z,4.30
2022-08-07T18:25:40.101Z,4.90
2022-08-07T18:28:36.126Z,5.20
2022-08-07T18:31:50.040Z,5.13
2022-08-07T18:34:53.439Z,4.37
2022-08-07T18:38:58.484Z,4.93
2022-08-07T18:41:45.625Z,4.23
2022-08-07T18:44:30.655Z,5.17
2022-08-07T18:47:21.038Z,4.60
2022-08-07T18:50:39.182Z,4.50
2022-08-07T18:53:43.031Z,4.87
2022-08-07T18:56:58.402Z,4.77
2022-08-07T18:59:58.806Z,4.93
2022-08-07T19:03:12.117Z,4.80
2022-08-07T19:06:02.463Z,4.57
2022-08-07T19:08:55.642Z,4.60
2022-08-07T19:11:37.345Z,5.97
2022-08-07T19:14:19.814Z,4.67
2022-08-07T19:17:04.665Z,5.00
2022-08-07T19:20:29.683Z,5.00
2022-08-07T19:23:18.839Z,5.53
2022-08-07T19:26:25.102Z,4.20
2022-08-07T19:30:57.198Z,5.00
2022-08-07T19:32:07.759Z,5.43
2022-08-07T19:34:55.290Z,5.67
2022-08-07T19:37:55.449Z,4.70
2022-08-07T19:40:23.063Z,4.90
2022-08-07T19:43:10.719Z,4.73
2022-08-07T19:46:07.333Z,5.00
2022-08-07T19:48:42.968Z,5.53
2022-08-07T19:51:20.334Z,4.80
2022-08-07T19:54:32.943Z,5.47
2022-08-07T19:58:02.224Z,4.07
2022-08-07T19:59:58.526Z,4.90
2022-08-07T20:02:51.839Z,4.70
2022-08-07T20:05:27.908Z,5.60
2022-08-07T20:08:03.213Z,5.27
2022-08-07T20:10:54.977Z,4.87
2022-08-07T20:13:34.446Z,4.83
2022-08-07T20:16:09.825Z,4.90
2022-08-07T20:19:02.820Z,5.83
2022-08-07T20:21:42.080Z,4.80
2022-08-07T20:24:31.513Z,4.70
2022-08-07T20:27:07.424Z,5.20
2022-08-07T20:29:58.468Z,4.90
2022-08-07T20:32:43.555Z,4.20
2022-08-07T20:35:23.271Z,4.40
2022-08-07T20:38:00.885Z,4.80
2022-08-07T20:40:51.462Z,5.10
2022-08-07T20:43:26.761Z,4.90
2022-08-07T20:46:28.849Z,5.07
2022-08-07T20:49:53.839Z,4.70
2022-08-07T20:51:50.382Z,5.03
2022-08-07T20:54:29.959Z,4.83
2022-08-07T20:57:05.085Z,4.30
2022-08-07T21:00:07.502Z,4.73
2022-08-07T21:02:55.330Z,5.50
2022-08-07T21:05:50.899Z,5.57
2022-08-07T21:08:46.812Z,4.50
2022-08-07T21:11:21.939Z,4.93
2022-08-07T21:14:31.912Z,5.20
2022-08-07T21:18:03.121Z,5.47
2022-08-07T21:20:05.161Z,4.97
2022-08-07T21:22:44.811Z,5.40
2022-08-07T21:25:56.973Z,5.20
2022-08-07T21:28:48.406Z,5.43
2022-08-07T21:32:47.010Z,5.33
2022-08-07T21:35:14.514Z,5.77
2022-08-07T21:38:18.388Z,5.40
2022-08-07T21:41:09.630Z,6.60
2022-08-07T21:44:05.222Z,4.30
2022-08-07T21:47:12.361Z,5.03
2022-08-07T21:50:02.006Z,5.50
2022-08-07T21:52:46.935Z,4.57
2022-08-07T21:55:29.831Z,5.00
2022-08-07T21:58:30.074Z,4.97
2022-08-07T22:01:17.715Z,4.87
2022-08-07T22:04:06.107Z,4.50
2022-08-07T22:06:56.054Z,5.20
2022-08-07T22:09:31.433Z,6.77
2022-08-07T22:12:24.753Z,6.90
2022-08-07T22:16:39.130Z,5.80
2022-08-07T22:18:03.261Z,6.40
2022-08-07T22:20:49.429Z,5.33
2022-08-07T22:23:30.591Z,5.10
2022-08-07T22:26:05.960Z,5.40
2022-08-07T22:28:53.164Z,5.50
2022-08-07T22:31:45.756Z,5.17
2022-08-07T22:34:35.620Z,4.97
2022-08-07T22:37:19.230Z,5.70
2022-08-07T22:39:57.325Z,5.60
2022-08-07T22:42:31.792Z,4.90
2022-08-07T22:45:21.923Z,5.40
2022-08-07T22:48:31.749Z,5.30
2022-08-07T22:51:02.775Z,5.27
2022-08-07T22:54:08.460Z,4.43
2022-08-07T22:57:00.725Z,4.87
2022-08-07T22:59:44.650Z,4.57
2022-08-07T23:02:41.617Z,5.60
2022-08-07T23:06:08.934Z,5.30
2022-08-07T23:08:47.951Z,5.10
2022-08-07T23:12:06.792Z,5.37
2022-08-07T23:14:41.803Z,5.23
2022-08-07T23:17:31.555Z,5.70
2022-08-07T23:20:40.487Z,4.60
2022-08-07T23:24:05.207Z,5.50
2022-08-07T23:26:25.034Z,5.20
2022-08-07T23:29:43.467Z,5.50
2022-08-07T23:34:36.244Z,4.87
2022-08-07T23:36:29.736Z,5.87
2022-08-07T23:39:08.673Z,5.10
2022-08-07T23:42:04.817Z,5.70
2022-08-07T23:48:18.497Z,5.60
2022-08-07T23:52:58.439Z,5.33
2022-08-07T23:54:36.493Z,5.33
2022-08-07T23:57:19.345Z,5.30
